Time;durP1;ratioP1;P1;durP2;ratioP2;P2;SDS_P1;SDS_P2;PMS_P1;PMS_P2;Temp;Humidity;BMP_temperature;BMP_pressure;BME280_temperature;BME280_humidity;BME280_pressure;Samples;Min_cycle;Max_cycle;Signal;HPM_P1;HPM_P2
2021/12/26 00:01:07;;;;;;;5.43;1.83;;;;;;;-5.65;100.00;100586.81;5058638;28;20204;-75
2021/12/26 00:03:34;;;;;;;5.00;1.67;;;;;;;-4.83;100.00;100663.72;5077387;28;20036;-75
2021/12/26 00:06:09;;;;;;;6.13;1.88;;;;;;;-5.54;100.00;100565.97;5059213;28;20123;-75
2021/12/26 00:08:36;;;;;;;6.32;2.20;;;;;;;-5.14;100.00;100661.06;5061334;28;20027;-75
2021/12/26 00:11:03;;;;;;;6.20;1.85;;;;;;;-4.82;100.00;100652.53;5094172;28;20161;-75
2021/12/26 00:13:33;;;;;;;5.97;1.80;;;;;;;-4.95;100.00;100620.28;5079259;28;20028;-76
2021/12/26 00:16:00;;;;;;;4.72;1.67;;;;;;;-6.06;100.00;100495.22;5062314;28;20033;-76
2021/12/26 00:18:27;;;;;;;4.30;1.50;;;;;;;-5.08;100.00;100588.84;5081266;28;20035;-76
2021/12/26 00:20:52;;;;;;;6.80;2.20;;;;;;;-5.53;100.00;100498.19;5080908;28;20063;-75
2021/12/26 00:23:18;;;;;;;5.95;1.80;;;;;;;-4.26;100.00;100672.53;5062365;28;20028;-76
2021/12/26 00:25:45;;;;;;;6.05;1.85;;;;;;;-5.29;100.00;100500.16;5094110;28;20024;-76
2021/12/26 00:28:11;;;;;;;9.23;1.90;;;;;;;-4.20;100.00;100663.78;5059759;28;20020;-75
2021/12/26 00:30:37;;;;;;;6.15;1.60;;;;;;;-4.18;100.00;100651.66;5075566;28;20074;-75
2021/12/26 00:33:06;;;;;;;5.43;1.85;;;;;;;-5.19;100.00;100577.13;5077373;28;20024;-76
2021/12/26 00:35:32;;;;;;;4.93;1.70;;;;;;;-4.93;100.00;100645.97;5092555;28;20029;-76
2021/12/26 00:37:58;;;;;;;7.10;1.83;;;;;;;-4.62;100.00;100646.00;5075618;28;20132;-76
2021/12/26 00:40:28;;;;;;;5.68;1.75;;;;;;;-4.15;100.00;100648.19;5077319;28;20102;-76
2021/12/26 00:42:55;;;;;;;6.78;2.00;;;;;;;-5.57;100.00;100500.00;5075598;28;20403;-76
2021/12/26 00:45:22;;;;;;;5.32;1.90;;;;;;;-5.68;100.00;100526.00;5076357;28;20048;-76
2021/12/26 00:47:48;;;;;;;7.70;1.95;;;;;;;-5.74;100.00;100615.31;5077499;28;20017;-76
2021/12/26 00:50:19;;;;;;;6.65;1.70;;;;;;;-5.01;100.00;100658.22;5077075;28;20038;-77
2021/12/26 00:52:45;;;;;;;6.65;2.13;;;;;;;-5.70;100.00;100540.63;5076463;28;20032;-76
2021/12/26 00:55:13;;;;;;;5.38;1.70;;;;;;;-4.53;100.00;100675.84;5075911;28;20390;-75
2021/12/26 00:57:39;;;;;;;4.65;1.70;;;;;;;-4.60;100.00;100656.28;5077377;28;20047;-75
2021/12/26 01:00:08;;;;;;;6.22;1.83;;;;;;;-4.93;100.00;100687.16;5059475;28;20073;-76
2021/12/26 01:02:35;;;;;;;6.97;2.08;;;;;;;-5.38;100.00;100610.19;5077065;28;20387;-76
2021/12/26 01:05:01;;;;;;;6.60;1.80;;;;;;;-5.88;100.00;100490.47;5062323;28;20028;-76
2021/12/26 01:07:46;;;;;;;6.20;2.30;;;;;;;-5.90;100.00;100584.81;5060690;28;20052;-76
2021/12/26 01:10:16;;;;;;;7.03;2.00;;;;;;;-5.89;100.00;100573.63;5078681;28;20039;-75
2021/12/26 01:12:41;;;;;;;6.03;1.90;;;;;;;-5.34;100.00;100563.75;5080034;28;20543;-75
2021/12/26 01:15:11;;;;;;;6.65;1.90;;;;;;;-5.59;100.00;100588.38;5078858;28;20028;-76
2021/12/26 01:17:40;;;;;;;5.80;1.90;;;;;;;-5.28;100.00;100606.50;5077165;28;20064;-75
2021/12/26 01:23:13;;;;;;;5.65;2.03;;;;;;;-5.12;100.00;100655.88;5045318;28;20387;-75
2021/12/26 01:25:39;;;;;;;6.65;2.10;;;;;;;-4.85;100.00;100670.63;4997434;28;20465;-76
2021/12/26 01:28:06;;;;;;;6.47;2.30;;;;;;;-5.25;100.00;100673.34;5014642;28;20049;-77
2021/12/26 01:33:34;;;;;;;7.43;2.10;;;;;;;-5.48;100.00;100561.50;5126848;27;20447;-77
2021/12/26 01:35:59;;;;;;;6.53;2.03;;;;;;;-5.26;100.00;100546.38;5094487;28;20060;-76
2021/12/26 09:26:23;;;;;;;;;;;;;;;-4.78;100.00;100491.00;5052928;28;19921;-77
2021/12/26 09:28:50;;;;;;;;;;;;;;;-4.38;100.00;100494.13;5049168;28;19931;-75
2021/12/26 09:31:17;;;;;;;7.20;2.78;;;;;;;-4.44;100.00;100479.72;5042333;28;19969;-74
2021/12/26 09:33:43;;;;;;;16.65;7.63;;;;;;;-4.33;100.00;100476.81;5063383;28;20519;-76
2021/12/26 09:36:09;;;;;;;;;;;;;;;-3.69;100.00;100491.97;5063971;28;20033;-75
2021/12/26 09:38:35;;;;;;;7.47;3.08;;;;;;;-5.00;100.00;100274.47;5024908;28;20587;-76
2021/12/26 09:41:01;;;;;;;10.18;3.42;;;;;;;-4.06;100.00;100418.38;5024568;28;20021;-76
2021/12/26 09:43:27;;;;;;;8.88;2.78;;;;;;;-3.44;100.00;100458.44;5052477;28;20021;-76
2021/12/26 09:45:53;;;;;;;19.73;7.35;;;;;;;-4.14;100.00;100379.09;5041172;28;20031;-75
2021/12/26 09:48:22;;;;;;;;;;;;;;;-3.63;100.00;100474.56;5051214;28;20021;-76
2021/12/26 09:50:51;;;;;;;;;;;;;;;-3.75;100.00;100466.38;5048610;28;19920;-77
2021/12/26 09:53:20;;;;;;;;;;;;;;;-3.08;100.00;100460.63;5046225;28;19917;-74
2021/12/26 09:55:46;;;;;;;7.75;2.70;;;;;;;-4.36;100.00;100377.25;5042532;28;19959;-75
2021/12/26 09:58:14;;;;;;;;;;;;;;;-3.48;100.00;100467.19;5045726;28;20124;-76
2021/12/26 10:00:41;;;;;;;;;;;;;;;-4.03;100.00;100465.53;5024359;28;20475;-77
2021/12/26 10:03:24;;;;;;;;;;;;;;;-3.29;100.00;100460.50;5042984;28;19967;-76
2021/12/26 10:05:55;;;;;;;;;;;;;;;-3.04;100.00;100465.63;5041020;28;19914;-74
2021/12/26 10:08:24;;;;;;;;;;;;;;;-3.00;100.00;100464.63;5046815;28;19913;-76
2021/12/26 10:11:03;;;;;;;;;;;;;;;-2.86;100.00;100452.91;5046320;28;19909;-74
2021/12/26 10:13:56;;;;;;;;;;;;;;;-2.76;100.00;100459.44;5048007;28;19913;-73
2021/12/26 10:16:23;;;;;;;;;;;;;;;-3.06;100.00;100461.44;5035002;28;19920;-74
2021/12/26 10:18:49;;;;;;;;;;;;;;;-3.00;100.00;100461.19;5046369;28;19918;-76
2021/12/26 10:21:34;;;;;;;;;;;;;;;-2.80;100.00;100447.53;5048914;28;20359;-77
2021/12/26 10:24:12;;;;;;;;;;;;;;;-3.02;100.00;100438.00;5060987;28;19983;-76
2021/12/26 10:26:40;;;;;;;;;;;;;;;-3.07;100.00;100433.88;5703128;23;20402;-75
2021/12/26 10:29:08;;;;;;;;;;;;;;;-3.28;100.00;100435.50;5019718;28;19921;-73
2021/12/26 10:31:36;;;;;;;;;;;;;;;-2.58;100.00;100435.50;5024617;28;19913;-73
2021/12/26 10:34:13;;;;;;;;;;;;;;;-2.65;100.00;100426.28;5006914;28;20059;-72
2021/12/26 10:36:46;;;;;;;;;;;;;;;-2.47;100.00;100413.56;5007772;28;19936;-73
2021/12/26 10:39:12;;;;;;;;;;;;;;;-2.71;100.00;100417.91;4993223;28;19921;-73
2021/12/26 10:41:44;;;;;;;;;;;;;;;-2.21;100.00;100408.16;5006138;28;19976;-73
2021/12/26 10:44:29;;;;;;;;;;;;;;;-2.43;100.00;100405.63;4990021;28;19937;-74
2021/12/26 10:46:57;;;;;;;;;;;;;;;-2.32;100.00;100406.03;5006615;28;19949;-73
2021/12/26 10:49:23;;;;;;;;;;;;;;;-2.21;100.00;100399.56;4986009;28;19973;-73
2021/12/26 10:51:51;;;;;;;;;;;;;;;-2.17;100.00;100406.31;4996830;28;19928;-74
2021/12/26 10:54:19;;;;;;;;;;;;;;;-2.45;100.00;100396.22;5424038;23;19933;-75
2021/12/26 10:57:02;;;;;;;;;;;;;;;-2.70;100.00;100402.38;5007823;28;19917;-75
2021/12/26 10:59:28;;;;;;;;;;;;;;;-2.03;100.00;100396.22;4999396;28;19913;-77
2021/12/26 11:01:59;;;;;;;;;;;;;;;-2.44;100.00;100392.75;5011119;28;19913;-76
2021/12/26 11:04:25;;;;;;;;;;;;;;;-2.37;100.00;100389.84;5029236;28;19920;-77
2021/12/26 11:07:03;;;;;;;;;;;;;;;-2.17;100.00;100380.44;5000499;28;20476;-76
2021/12/26 11:09:29;;;;;;;;;;;;;;;-1.99;100.00;100379.69;5017193;28;19938;-78
2021/12/26 11:12:07;;;;;;;7.97;3.20;;;;;;;-1.52;100.00;100392.34;5032296;28;19922;-77
2021/12/26 11:14:54;;;;;;;;;;;;;;;-0.97;100.00;100377.84;5019196;28;20041;-80
2021/12/26 11:17:33;;;;;;;;;;;;;;;-0.31;100.00;100374.75;5022803;28;20305;-76
2021/12/26 11:19:59;;;;;;;;;;;;;;;-0.07;100.00;100364.88;5032570;28;19928;-75
2021/12/26 11:22:26;;;;;;;;;;;;;;;-0.10;100.00;100375.44;5020467;28;19939;-76
2021/12/26 11:24:57;;;;;;;;;;;;;;;0.20;100.00;100368.72;5029627;28;20341;-75
2021/12/26 11:27:24;;;;;;;;;;;;;;;0.81;100.00;100356.03;5035356;28;19959;-76
2021/12/26 11:29:52;;;;;;;;;;;;;;;2.15;88.79;100356.34;5028368;28;20391;-75
2021/12/26 11:32:26;;;;;;;;;;;;;;;0.91;98.62;100357.22;5021119;28;19916;-76
2021/12/26 11:34:54;;;;;;;;;;;;;;;0.44;100.00;100362.34;5009925;28;19917;-77
2021/12/26 11:37:20;;;;;;;;;;;;;;;-1.26;100.00;100359.28;5002978;28;20295;-74
2021/12/26 11:39:48;;;;;;;;;;;;;;;-1.20;100.00;100355.56;5002580;28;19913;-74
2021/12/26 11:42:29;;;;;;;;;;;;;;;-0.35;100.00;100355.03;4998268;28;19960;-75
2021/12/26 11:45:13;;;;;;;;;;;;;;;-0.40;100.00;100349.25;4997651;28;19913;-73
2021/12/26 11:47:57;;;;;;;;;;;;;;;-0.59;100.00;100338.91;4997119;28;19914;-73
2021/12/26 11:50:35;;;;;;;;;;;;;;;-0.84;100.00;100340.09;4997799;28;20398;-73
2021/12/26 11:53:08;;;;;;;;;;;;;;;-0.38;100.00;100335.28;4996579;28;20071;-74
2021/12/26 11:55:33;;;;;;;;;;;;;;;-0.81;100.00;100333.91;4980799;28;19918;-73
2021/12/26 11:58:22;;;;;;;;;;;;;;;-0.86;100.00;100334.13;5000187;28;19918;-72
2021/12/26 12:00:52;;;;;;;;;;;;;;;-1.31;100.00;100333.59;4961082;28;19918;-73
2021/12/26 12:03:19;;;;;;;;;;;;;;;-0.58;100.00;100327.63;4944269;29;19918;-74
2021/12/26 12:05:45;;;;;;;;;;;;;;;-0.58;100.00;100330.22;4956999;28;19914;-73
2021/12/26 12:08:13;;;;;;;;;;;;;;;-0.80;100.00;100320.03;4957212;28;19915;-73
2021/12/26 12:10:57;;;;;;;;;;;;;;;-1.01;100.00;100317.53;4960099;28;19924;-73
2021/12/26 12:13:22;;;;;;;7.97;3.40;;;;;;;-1.19;100.00;100321.81;4959627;28;19914;-73
2021/12/26 12:15:54;;;;;;;10.75;3.42;;;;;;;-0.77;100.00;100325.91;4926374;29;20125;-74
2021/12/26 12:18:45;;;;;;;7.57;3.10;;;;;;;-2.19;100.00;100168.41;4958983;28;20031;-74
2021/12/26 12:21:32;;;;;;;11.65;4.68;;;;;;;-1.76;100.00;100236.34;4977732;28;20061;-75
2021/12/26 12:24:09;;;;;;;9.05;3.40;;;;;;;-0.77;100.00;100312.09;4981821;28;20087;-75
2021/12/26 12:27:13;;;;;;;9.30;3.30;;;;;;;-0.80;100.00;100307.91;4959005;28;20027;-73
2021/12/26 12:29:52;;;;;;;9.45;3.60;;;;;;;-0.86;100.00;100314.22;4958834;28;20055;-74
2021/12/26 12:32:26;;;;;;;6.60;2.85;;;;;;;-1.60;100.00;100228.72;4948083;28;20030;-75
2021/12/26 12:35:09;;;;;;;11.95;4.05;;;;;;;-2.07;100.00;100231.69;4980378;28;20066;-72
2021/12/26 12:37:46;;;;;;;9.55;3.78;;;;;;;-2.25;100.00;100178.16;4988668;28;20030;-76
2021/12/26 12:40:29;;;;;;;8.68;3.30;;;;;;;-1.80;100.00;100154.56;5026005;28;20029;-75
2021/12/26 12:43:09;;;;;;;11.43;3.50;;;;;;;-0.59;100.00;100321.59;5015425;28;20376;-74
2021/12/26 12:46:01;;;;;;;9.25;3.80;;;;;;;-0.33;100.00;100311.69;4994753;28;20501;-74
2021/12/26 12:48:41;;;;;;;7.88;3.50;;;;;;;-0.84;100.00;100306.38;5021963;28;20041;-74
2021/12/26 12:51:15;;;;;;;9.13;4.00;;;;;;;-0.73;100.00;100298.06;5030841;28;20497;-75
2021/12/26 12:53:51;;;;;;;11.63;4.22;;;;;;;-0.67;100.00;100302.97;5020565;28;20376;-73
2021/12/26 12:56:44;;;;;;;10.60;3.45;;;;;;;-0.65;100.00;100290.78;5023466;28;20038;-72
2021/12/26 12:59:14;;;;;;;7.55;3.42;;;;;;;-1.00;100.00;100282.94;4975346;28;20345;-73
2021/12/26 13:01:50;;;;;;;9.02;3.92;;;;;;;-1.66;100.00;100177.22;4986138;28;20373;-75
2021/12/26 13:04:21;;;;;;;10.50;3.58;;;;;;;-1.61;100.00;100172.69;5000944;28;20022;-74
2021/12/26 13:07:01;;;;;;;11.43;4.20;;;;;;;-1.65;100.00;100261.75;4981741;28;20396;-73
2021/12/26 13:09:29;;;;;;;9.60;3.78;;;;;;;-1.89;100.00;100173.09;5001935;28;20424;-72
2021/12/26 13:12:08;;;;;;;8.98;3.92;;;;;;;-1.07;100.00;100292.75;5005665;28;20033;-75
2021/12/26 13:14:51;;;;;;;8.95;3.30;;;;;;;-1.69;100.00;100291.28;4982264;28;20057;-73
2021/12/26 13:17:25;;;;;;;9.57;3.80;;;;;;;-1.52;100.00;100286.19;5024786;28;20042;-74
2021/12/26 13:20:05;;;;;;;12.98;5.28;;;;;;;-1.21;100.00;100287.34;5023365;28;20055;-74
2021/12/26 13:22:50;;;;;;;10.93;3.88;;;;;;;-2.13;100.00;100097.47;4986016;28;21064;-74
2021/12/26 13:25:34;;;;;;;10.52;4.40;;;;;;;-2.00;100.00;100154.63;5001706;28;20046;-73
2021/12/26 13:28:03;;;;;;;9.27;3.67;;;;;;;-1.30;100.00;100226.44;5018419;28;20084;-74
2021/12/26 13:30:31;;;;;;;9.43;3.72;;;;;;;-1.74;100.00;100164.63;5004596;28;20467;-74
2021/12/26 13:32:57;;;;;;;9.07;3.95;;;;;;;-1.12;100.00;100280.91;4988761;28;20468;-73
2021/12/26 13:35:36;;;;;;;9.32;4.18;;;;;;;-1.23;100.00;100260.69;5017582;28;20037;-74
2021/12/26 13:38:06;;;;;;;8.43;3.72;;;;;;;-1.00;100.00;100275.19;5021114;28;20028;-73
2021/12/26 13:40:34;;;;;;;12.57;4.53;;;;;;;-2.42;100.00;100127.22;4977506;28;20048;-74
2021/12/26 13:43:03;;;;;;;19.83;6.07;;;;;;;-2.33;100.00;100158.66;4991840;28;20487;-76
2021/12/26 13:45:32;;;;;;;10.50;4.07;;;;;;;-1.82;100.00;100194.38;5002865;28;20025;-73
2021/12/26 13:48:02;;;;;;;10.13;3.97;;;;;;;-1.54;100.00;100253.50;4961776;28;20571;-74
2021/12/26 13:50:28;;;;;;;9.70;4.00;;;;;;;-2.11;100.00;100100.81;5004928;28;20022;-73
2021/12/26 13:53:06;;;;;;;9.63;3.75;;;;;;;-1.01;100.00;100257.94;4999928;28;20028;-73
2021/12/26 13:55:40;;;;;;;9.55;3.60;;;;;;;-1.17;100.00;100255.22;5012210;28;20417;-73
2021/12/26 13:58:10;;;;;;;9.27;4.13;;;;;;;-2.46;100.00;100154.94;5013802;28;20140;-73
2021/12/26 14:00:57;;;;;;;10.93;4.28;;;;;;;-1.90;100.00;100243.91;4998689;28;20030;-74
2021/12/26 14:03:24;;;;;;;10.23;3.92;;;;;;;-1.60;100.00;100179.53;4976413;28;20116;-74
2021/12/26 14:05:50;;;;;;;8.60;3.88;;;;;;;-2.18;100.00;100050.25;5013284;28;20037;-74
2021/12/26 14:08:19;;;;;;;10.32;4.38;;;;;;;-1.62;100.00;100181.34;5028189;28;20133;-73
2021/12/26 14:10:53;;;;;;;10.00;4.18;;;;;;;-1.38;100.00;100171.59;5030399;28;20013;-73
2021/12/26 14:13:20;;;;;;;9.15;4.28;;;;;;;-1.09;100.00;100241.88;5035308;28;20096;-72
2021/12/26 14:15:49;;;;;;;10.85;4.53;;;;;;;-1.53;100.00;100234.47;4998851;28;20056;-74
2021/12/26 14:18:18;;;;;;;13.52;5.63;;;;;;;-1.20;100.00;100226.00;5026783;28;20033;-73
2021/12/26 14:20:48;;;;;;;12.65;5.32;;;;;;;-1.93;100.00;100119.81;5019195;28;20005;-74
2021/12/26 14:23:19;;;;;;;10.15;4.40;;;;;;;-1.10;100.00;100206.53;5014672;28;20475;-76
2021/12/26 14:25:45;;;;;;;10.50;4.50;;;;;;;-1.86;100.00;100159.19;4999390;28;20182;-74
2021/12/26 14:28:18;;;;;;;10.52;4.40;;;;;;;-1.75;100.00;100133.63;5034613;28;20025;-75
2021/12/26 14:30:46;;;;;;;9.40;4.25;;;;;;;-1.69;100.00;100221.38;5000098;28;20553;-73
2021/12/26 14:33:13;;;;;;;11.00;4.38;;;;;;;-1.20;100.00;100211.34;5001214;28;20017;-74
2021/12/26 14:35:39;;;;;;;10.07;4.25;;;;;;;-1.52;100.00;100159.31;5021173;28;20056;-73
2021/12/26 14:38:12;;;;;;;10.45;4.53;;;;;;;-1.61;100.00;100221.00;5040844;28;20029;-73
2021/12/26 14:40:52;;;;;;;10.13;4.32;;;;;;;-1.37;100.00;100214.72;5057009;28;20028;-74
2021/12/26 14:43:20;;;;;;;9.88;4.28;;;;;;;-2.29;100.00;100013.69;5022018;28;20108;-73
2021/12/26 14:45:51;;;;;;;10.13;4.25;;;;;;;-1.39;100.00;100143.19;5022500;28;20468;-74
2021/12/26 14:48:42;;;;;;;10.50;4.50;;;;;;;-2.53;100.00;100029.44;5036984;28;20107;-74
2021/12/26 14:51:20;;;;;;;8.45;3.63;;;;;;;-0.95;100.00;100200.63;5038763;28;20114;-73
2021/12/26 14:53:57;;;;;;;38.95;14.07;;;;;;;-1.22;100.00;100202.78;5057072;28;20121;-74
2021/12/26 14:56:23;;;;;;;11.43;4.75;;;;;;;-1.64;100.00;100161.63;5038019;28;20045;-73
2021/12/26 14:58:52;;;;;;;12.70;4.88;;;;;;;-1.56;100.00;100136.22;5055863;28;20098;-73
2021/12/26 15:01:38;;;;;;;10.57;4.28;;;;;;;-0.98;100.00;100158.47;5038569;28;20033;-72
2021/12/26 15:04:10;;;;;;;11.18;4.60;;;;;;;-1.17;100.00;100148.16;5039748;28;20057;-74
2021/12/26 15:06:48;;;;;;;10.45;4.57;;;;;;;-0.65;100.00;100192.25;5059361;28;20036;-74
2021/12/26 15:09:50;;;;;;;10.52;4.85;;;;;;;-1.09;100.00;100123.56;5041487;28;20028;-73
2021/12/26 15:15:56;;;;;;;10.02;4.50;;;;;;;-1.32;100.00;100197.22;4978005;28;20169;-74
2021/12/26 15:18:26;;;;;;;15.40;5.55;;;;;;;-1.30;100.00;100096.94;4962080;28;20535;-73
2021/12/26 15:20:59;;;;;;;38.40;14.25;;;;;;;-0.91;100.00;100222.91;4945257;28;20034;-74
2021/12/26 15:23:35;;;;;;;28.50;10.27;;;;;;;-0.94;100.00;100206.63;4948312;28;20126;-76
2021/12/26 15:26:14;;;;;;;10.75;5.22;;;;;;;-1.11;100.00;100148.72;4978291;28;20034;-74
2021/12/26 15:32:24;;;;;;;10.73;5.10;;;;;;;-1.16;100.00;100119.59;4977530;28;20081;-74
2021/12/26 15:34:53;;;;;;;13.52;5.45;;;;;;;-0.71;100.00;100213.28;4978843;28;20026;-76
2021/12/26 15:37:19;;;;;;;12.60;5.50;;;;;;;-1.19;100.00;100124.91;4961562;28;20069;-74
2021/12/26 15:39:47;;;;;;;12.45;4.88;;;;;;;-0.89;100.00;100181.31;4961314;28;20049;-75
2021/12/26 15:42:13;;;;;;;12.77;5.68;;;;;;;-0.72;100.00;100196.06;4977103;28;20444;-75
2021/12/26 15:48:22;;;;;;;11.63;5.53;;;;;;;-1.65;100.00;100079.72;4985190;28;20046;-75
2021/12/26 15:50:52;;;;;;;13.65;6.15;;;;;;;-0.65;100.00;100189.66;5042333;28;20032;-76
2021/12/26 15:53:20;;;;;;;11.38;5.22;;;;;;;-0.74;100.00;100185.75;5041965;28;20463;-74
2021/12/26 15:55:48;;;;;;;14.70;5.80;;;;;;;-1.64;100.00;100071.00;5040201;28;20040;-74
2021/12/26 15:58:16;;;;;;;14.52;6.20;;;;;;;-0.82;100.00;100155.94;5042114;28;20048;-76
2021/12/26 16:00:41;;;;;;;13.88;5.97;;;;;;;-1.37;100.00;100092.97;5024585;28;20025;-76
2021/12/26 16:03:07;;;;;;;14.32;5.72;;;;;;;-1.94;100.00;100076.75;5040536;28;20047;-74
2021/12/26 16:05:33;;;;;;;13.27;6.25;;;;;;;-1.48;100.00;100115.97;5039832;28;20056;-75
2021/12/26 16:07:58;;;;;;;14.57;5.85;;;;;;;-1.96;100.00;100057.84;5039865;28;20094;-75
2021/12/26 16:10:24;;;;;;;11.80;6.07;;;;;;;-2.56;100.00;99932.19;5039649;28;20025;-73
2021/12/26 16:12:51;;;;;;;22.95;9.98;;;;;;;-0.70;100.00;100163.94;5039659;28;20036;-74
2021/12/26 16:15:17;;;;;;;17.70;7.90;;;;;;;-0.55;100.00;100164.09;5057596;28;20035;-74
2021/12/26 16:17:43;;;;;;;19.75;8.63;;;;;;;-1.12;100.00;100092.59;5040142;28;20375;-74
2021/12/26 16:20:10;;;;;;;37.38;14.60;;;;;;;-1.27;100.00;100039.00;5059219;28;20021;-74
2021/12/26 16:22:41;;;;;;;13.50;6.03;;;;;;;-1.12;100.00;100172.94;5029765;23;20020;-75
2021/12/26 16:25:10;;;;;;;14.43;6.60;;;;;;;-1.01;100.00;100135.28;5036675;28;20074;-76
2021/12/26 16:27:41;;;;;;;13.23;6.03;;;;;;;-1.40;100.00;100100.06;5021309;28;20056;-74
2021/12/26 16:30:18;;;;;;;15.27;5.97;;;;;;;-1.41;100.00;100150.19;5026261;28;20419;-75
2021/12/26 16:32:45;;;;;;;14.70;6.32;;;;;;;-2.33;100.00;100013.84;5022498;28;20030;-77
2021/12/26 16:35:13;;;;;;;13.05;6.00;;;;;;;-1.69;100.00;100130.78;5022147;28;20029;-75
2021/12/26 16:37:40;;;;;;;19.30;8.02;;;;;;;-1.32;100.00;100116.06;5021935;28;20093;-76
2021/12/26 16:40:08;;;;;;;12.95;5.70;;;;;;;-1.04;100.00;100185.53;5007568;28;20033;-76
2021/12/26 16:42:38;;;;;;;17.95;7.88;;;;;;;-1.19;100.00;100111.97;5007946;28;20029;-76
2021/12/26 16:45:04;;;;;;;16.77;6.82;;;;;;;-1.75;100.00;99993.88;5023099;28;20028;-76
2021/12/26 16:47:30;;;;;;;12.18;6.00;;;;;;;-1.60;100.00;100002.66;5033611;28;20028;-72
2021/12/26 16:49:56;;;;;;;17.98;6.32;;;;;;;-0.51;100.00;100178.56;5039064;28;20021;-75
2021/12/26 16:52:22;;;;;;;13.40;6.15;;;;;;;-0.28;100.00;100172.19;5018023;28;20028;-74
2021/12/26 16:54:48;;;;;;;15.13;7.63;;;;;;;-1.01;100.00;100117.16;5057620;28;20017;-74
2021/12/26 16:57:14;;;;;;;13.68;6.05;;;;;;;-1.14;100.00;100117.75;5044744;28;20055;-74
2021/12/26 16:59:42;;;;;;;15.38;6.55;;;;;;;-1.08;100.00;100086.34;5046623;28;20056;-76
2021/12/26 17:02:12;;;;;;;13.73;6.05;;;;;;;-1.12;100.00;100177.28;5045241;28;20029;-75
2021/12/26 17:04:38;;;;;;;17.83;6.82;;;;;;;-0.51;100.00;100163.00;5062662;28;20047;-75
2021/12/26 17:07:04;;;;;;;15.70;7.20;;;;;;;-0.79;100.00;100159.22;5043262;28;20029;-75
2021/12/26 17:09:30;;;;;;;26.33;9.57;;;;;;;-1.08;100.00;100166.69;5029876;28;20502;-75
2021/12/26 17:11:59;;;;;;;16.73;7.28;;;;;;;-1.31;100.00;100113.41;5023521;28;20120;-75
2021/12/26 17:14:26;;;;;;;19.77;7.85;;;;;;;-0.89;100.00;100170.97;5040062;28;20091;-74
2021/12/26 17:16:52;;;;;;;15.90;6.63;;;;;;;-0.80;100.00;100154.94;5050813;28;20025;-74
2021/12/26 17:19:21;;;;;;;15.63;6.63;;;;;;;-1.94;100.00;100037.94;5019977;28;20032;-77
2021/12/26 17:21:47;;;;;;;16.02;6.93;;;;;;;-1.19;100.00;100047.19;5003057;28;20084;-73
2021/12/26 17:24:17;;;;;;;17.20;6.95;;;;;;;-2.03;100.00;99963.34;5018717;28;20038;-75
2021/12/26 17:26:43;;;;;;;20.70;8.60;;;;;;;-0.80;100.00;100174.84;5017342;28;20033;-73
2021/12/26 17:29:09;;;;;;;16.23;6.75;;;;;;;-0.89;100.00;100145.88;5019142;28;20030;-76
2021/12/26 17:31:36;;;;;;;16.02;7.28;;;;;;;-1.01;100.00;100075.69;5021458;28;20698;-75
2021/12/26 17:34:02;;;;;;;16.27;7.22;;;;;;;-1.61;100.00;99969.88;5038209;28;20117;-73
2021/12/26 17:36:27;;;;;;;16.02;6.78;;;;;;;-0.80;100.00;100100.50;5022348;28;20352;-75
2021/12/26 17:38:56;;;;;;;14.32;6.35;;;;;;;-1.17;100.00;100035.00;5045734;23;20044;-75
2021/12/26 17:41:23;;;;;;;13.90;6.57;;;;;;;-0.25;100.00;100135.72;5079706;28;20037;-76
2021/12/26 17:43:51;;;;;;;14.70;6.35;;;;;;;-1.42;100.00;100087.19;5067638;28;20025;-77
2021/12/26 17:48:42;;;;;;;14.97;7.23;;;;;;;-1.25;100.00;100044.91;5070210;22;20519;-76
2021/12/26 17:51:11;;;;;;;13.75;6.38;;;;;;;-1.25;100.00;100000.88;5033484;28;20353;-81
2021/12/26 17:53:38;;;;;;;15.48;6.55;;;;;;;-0.73;100.00;100054.38;5008320;28;20056;-77
2021/12/26 17:56:08;;;;;;;15.38;6.97;;;;;;;-1.20;100.00;100009.25;5032381;28;20029;-79
2021/12/26 17:58:36;;;;;;;17.77;7.50;;;;;;;-1.10;100.00;100088.19;5050473;28;20025;-76
2021/12/26 18:01:04;;;;;;;16.02;7.10;;;;;;;-1.11;100.00;100127.16;5038999;28;20047;-77
2021/12/26 18:03:31;;;;;;;17.40;7.47;;;;;;;-1.30;100.00;100013.22;5031315;28;20033;-78
2021/12/26 18:06:30;;;;;;;20.13;7.47;;;;;;;-0.50;100.00;100116.25;5057496;23;20054;-79
2021/12/26 18:09:01;;;;;;;15.27;6.88;;;;;;;-0.75;100.00;100118.41;5061101;23;20079;-78
2021/12/26 18:11:28;;;;;;;14.18;7.10;;;;;;;-0.87;100.00;100049.91;5046396;28;20071;-77
2021/12/26 18:13:58;;;;;;;47.72;17.15;;;;;;;-1.05;100.00;100049.91;5043363;28;20048;-77
2021/12/26 18:16:25;;;;;;;23.25;9.43;;;;;;;-1.32;100.00;99927.84;5040045;28;20026;-79
2021/12/26 18:18:52;;;;;;;17.58;6.70;;;;;;;-1.48;100.00;99932.97;5057904;28;20028;-78
2021/12/26 18:21:19;;;;;;;15.77;7.22;;;;;;;-0.99;100.00;100076.47;5038447;28;20026;-77
2021/12/26 18:23:45;;;;;;;17.90;7.90;;;;;;;-0.98;100.00;100127.34;5019320;28;20024;-77
2021/12/26 18:26:19;;;;;;;20.42;8.88;;;;;;;-0.63;100.00;100110.03;5038101;28;20030;-78
2021/12/26 18:28:52;;;;;;;134.55;50.92;;;;;;;-1.03;100.00;100047.25;5052130;28;20035;-81
2021/12/26 18:31:18;;;;;;;20.80;9.32;;;;;;;-0.79;100.00;100021.84;5033489;28;20113;-79
2021/12/26 18:33:47;;;;;;;15.07;7.55;;;;;;;-0.64;100.00;100113.53;5035294;28;20101;-78
2021/12/26 18:36:16;;;;;;;15.02;7.40;;;;;;;-0.45;100.00;100106.47;5026715;28;20094;-75
2021/12/26 18:38:42;;;;;;;19.50;8.57;;;;;;;-0.39;100.00;100061.19;5033680;23;20044;-75
2021/12/26 18:41:09;;;;;;;17.30;7.82;;;;;;;-0.31;100.00;100055.63;5076148;28;20079;-76
2021/12/26 18:43:35;;;;;;;16.88;7.93;;;;;;;0.09;100.00;100115.72;5063495;22;20030;-77
2021/12/26 18:46:02;;;;;;;17.33;7.75;;;;;;;-1.16;100.00;99927.03;5058182;22;20084;-76
2021/12/26 18:48:34;;;;;;;15.90;7.43;;;;;;;-0.97;100.00;100035.75;5027428;23;20037;-76
2021/12/26 18:51:00;;;;;;;15.75;7.38;;;;;;;-0.38;100.00;100119.13;5056293;23;20095;-77
2021/12/26 18:53:29;;;;;;;23.50;10.85;;;;;;;-1.22;100.00;99929.97;5083773;28;20077;-78
2021/12/26 18:55:54;;;;;;;19.90;8.75;;;;;;;-0.73;100.00;99989.56;5047898;22;20757;-77
2021/12/26 18:58:21;;;;;;;16.23;8.23;;;;;;;0.16;100.00;100122.25;5041922;23;20053;-75
2021/12/26 19:00:49;;;;;;;20.42;8.75;;;;;;;-0.20;100.00;100115.56;5002266;28;20111;-76
2021/12/26 19:03:15;;;;;;;16.73;8.23;;;;;;;-0.18;100.00;100043.66;5003371;28;20037;-77
2021/12/26 19:05:45;;;;;;;19.27;7.95;;;;;;;0.01;100.00;100102.34;5005536;28;20040;-76
2021/12/26 19:08:15;;;;;;;19.90;8.98;;;;;;;-0.76;100.00;99964.63;5004543;28;20026;-77
2021/12/26 19:10:46;;;;;;;18.17;9.07;;;;;;;-0.70;100.00;100003.19;5021000;28;20396;-82
2021/12/26 19:13:15;;;;;;;25.58;11.68;;;;;;;-0.01;100.00;100107.63;4990063;28;20125;-77
2021/12/26 19:15:46;;;;;;;16.73;7.63;;;;;;;-0.76;100.00;99937.88;4995893;28;20059;-76
2021/12/26 19:18:12;;;;;;;16.05;7.78;;;;;;;-0.04;100.00;100087.84;4989918;28;20037;-77
2021/12/26 19:20:43;;;;;;;19.88;9.27;;;;;;;-1.55;100.00;99988.56;5004920;28;20121;-77
2021/12/26 19:23:12;;;;;;;19.77;9.07;;;;;;;-0.79;100.00;100008.88;5015317;28;20028;-78
2021/12/26 19:25:40;;;;;;;18.02;8.70;;;;;;;-0.65;100.00;100010.75;5024957;28;20035;-76
2021/12/26 19:28:07;;;;;;;21.50;10.43;;;;;;;-1.48;100.00;99907.09;5022895;28;20057;-79
2021/12/26 19:30:36;;;;;;;20.05;8.85;;;;;;;-0.89;100.00;99955.81;5018938;28;20045;-78
2021/12/26 19:33:08;;;;;;;18.42;8.38;;;;;;;-1.18;100.00;99911.59;5012212;28;20437;-77
2021/12/26 19:35:36;;;;;;;19.25;9.27;;;;;;;-1.30;100.00;99881.97;5007062;28;20029;-77
2021/12/26 19:38:06;;;;;;;17.90;8.95;;;;;;;-0.11;100.00;100076.16;5007907;28;20080;-77
2021/12/26 19:40:35;;;;;;;18.67;9.10;;;;;;;-0.68;100.00;100008.28;5003581;28;20021;-76
2021/12/26 19:43:04;;;;;;;19.08;9.20;;;;;;;-1.86;100.00;99885.72;4999527;28;20014;-78
2021/12/26 19:45:31;;;;;;;19.23;8.45;;;;;;;-1.29;100.00;99894.00;4997321;28;20438;-77
2021/12/26 19:48:01;;;;;;;16.52;8.55;;;;;;;-0.30;100.00;100000.22;5000089;28;20723;-77
2021/12/26 19:50:28;;;;;;;20.40;9.73;;;;;;;-0.13;100.00;100033.03;5005484;23;20048;-76